createdAt,value
2022-12-12T00:37:16.845Z,52.60
2022-12-12T10:33:02.256Z,53.30
2022-12-12T10:35:39.413Z,53.74
2022-12-12T10:38:27.991Z,53.16
2022-12-12T10:41:05.544Z,53.17
2022-12-12T10:43:46.092Z,53.08
2022-12-12T10:46:21.996Z,52.89
2022-12-12T10:48:56.187Z,53.05
2022-12-12T10:51:28.161Z,52.99
2022-12-12T10:53:57.351Z,52.84
2022-12-12T10:56:29.331Z,52.86
2022-12-12T10:59:01.746Z,53.29
2022-12-12T11:04:28.407Z,52.93
2022-12-12T11:06:59.044Z,53.06
2022-12-12T11:09:29.366Z,52.81
2022-12-12T11:12:03.704Z,52.72
2022-12-12T11:14:36.356Z,52.86
2022-12-12T11:17:33.033Z,52.64
2022-12-12T11:20:12.479Z,52.54
2022-12-12T11:22:41.631Z,52.68
2022-12-12T11:25:26.944Z,52.82
2022-12-12T11:27:56.134Z,52.78
2022-12-12T11:30:30.580Z,52.72
2022-12-12T11:35:47.862Z,52.60
2022-12-12T11:38:34.202Z,52.62
2022-12-12T11:41:05.275Z,52.26
2022-12-12T11:43:37.295Z,52.22
2022-12-12T11:46:09.336Z,52.17
2022-12-12T11:48:46.450Z,52.22
2022-12-12T11:51:32.444Z,52.18
2022-12-12T11:54:01.328Z,52.00
2022-12-12T11:56:37.647Z,51.96
2022-12-12T11:59:26.230Z,51.90
2022-12-12T12:02:04.707Z,52.23
2022-12-12T12:04:53.600Z,51.51
2022-12-12T12:07:50.402Z,51.98
2022-12-12T12:10:32.770Z,51.97
2022-12-12T12:13:13.271Z,51.77
2022-12-12T12:18:42.554Z,52.10
2022-12-12T12:21:29.681Z,52.00
2022-12-12T15:47:35.564Z,50.76
2022-12-12T15:53:28.260Z,51.06
2022-12-12T15:56:03.479Z,51.37
2022-12-12T15:58:36.528Z,50.83
2022-12-12T16:01:20.716Z,50.72
2022-12-12T16:04:07.397Z,51.15
2022-12-12T16:12:07.883Z,51.19
2022-12-12T16:17:38.516Z,50.84
2022-12-12T16:20:18.170Z,50.75
2022-12-12T16:28:41.124Z,51.15
2022-12-12T16:38:21.537Z,50.80
2022-12-12T16:41:35.012Z,51.30
2022-12-12T16:48:22.360Z,51.31
2022-12-12T16:54:36.573Z,51.40
2022-12-12T17:10:31.976Z,51.20
2022-12-12T17:16:13.087Z,50.73
2022-12-12T17:18:58.959Z,51.01
